Time;durP1;ratioP1;P1;durP2;ratioP2;P2;SDS_P1;SDS_P2;PMS_P1;PMS_P2;Temp;Humidity;BMP_temperature;BMP_pressure;BME280_temperature;BME280_humidity;BME280_pressure;Samples;Min_cycle;Max_cycle;Signal;HPM_P1;HPM_P2
2021/12/08 00:02:04;;;;;;;5.43;2.00;;;6.30;97.90;;;;;;5015865;28;20517;-72
2021/12/08 00:04:30;;;;;;;4.83;2.13;;;6.30;98.20;;;;;;5015900;28;20467;-72
2021/12/08 00:06:58;;;;;;;4.73;1.80;;;6.30;98.50;;;;;;5015944;28;20459;-72
2021/12/08 00:09:34;;;;;;;3.20;1.90;;;6.30;98.40;;;;;;5015699;28;20486;-72
2021/12/08 00:14:45;;;;;;;5.23;2.33;;;6.20;98.80;;;;;;5014839;28;20554;-71
2021/12/08 00:17:12;;;;;;;2.80;1.80;;;6.20;99.10;;;;;;5015670;28;20448;-71
2021/12/08 00:19:39;;;;;;;2.97;1.80;;;6.20;99.20;;;;;;5015635;28;20498;-71
2021/12/08 00:22:07;;;;;;;5.80;2.90;;;6.10;99.30;;;;;;5015546;28;20844;-71
2021/12/08 00:24:34;;;;;;;3.50;1.53;;;6.20;99.40;;;;;;5015443;28;20496;-71
2021/12/08 00:27:00;;;;;;;2.30;1.80;;;6.20;99.60;;;;;;5015201;28;20452;-71
2021/12/08 00:29:27;;;;;;;3.83;1.50;;;6.20;99.60;;;;;;5015403;28;20554;-71
2021/12/08 00:31:54;;;;;;;3.47;1.80;;;6.20;99.70;;;;;;5015076;28;20873;-71
2021/12/08 00:34:20;;;;;;;5.13;1.93;;;6.20;99.60;;;;;;5015288;28;20479;-71
2021/12/08 00:36:50;;;;;;;2.80;1.60;;;6.20;99.70;;;;;;5015294;28;20443;-71
2021/12/08 00:39:19;;;;;;;4.63;2.00;;;6.20;99.80;;;;;;5015800;28;20432;-71
2021/12/08 00:41:45;;;;;;;3.73;1.40;;;6.20;99.90;;;;;;5015172;28;20454;-71
2021/12/08 00:44:12;;;;;;;4.50;2.00;;;6.20;99.80;;;;;;5015335;28;20467;-71
2021/12/08 00:46:39;;;;;;;3.43;1.80;;;6.20;99.90;;;;;;5015129;28;20454;-71
2021/12/08 00:49:07;;;;;;;2.53;2.00;;;6.20;99.70;;;;;;5015041;28;20482;-71
2021/12/08 00:51:34;;;;;;;3.40;1.93;;;6.30;99.90;;;;;;5015053;28;20454;-71
2021/12/08 00:54:01;;;;;;;1.70;1.40;;;6.30;99.90;;;;;;5014991;28;20518;-71
2021/12/08 00:56:30;;;;;;;4.40;1.93;;;6.30;99.90;;;;;;5015007;28;20447;-71
2021/12/08 00:58:57;;;;;;;3.27;1.53;;;6.30;99.90;;;;;;5014699;28;20960;-71
2021/12/08 01:01:24;;;;;;;2.83;1.60;;;6.30;99.90;;;;;;5015002;28;20435;-71
2021/12/08 01:03:51;;;;;;;8.87;2.00;;;6.40;99.90;;;;;;5014871;28;20490;-71
2021/12/08 01:06:19;;;;;;;3.60;1.00;;;6.40;99.90;;;;;;5014846;28;20454;-71
2021/12/08 01:08:47;;;;;;;2.40;1.60;;;6.40;99.90;;;;;;5014530;28;20475;-71
2021/12/08 01:11:16;;;;;;;1.87;1.20;;;6.40;99.90;;;;;;5014796;28;20862;-71
2021/12/08 01:13:47;;;;;;;1.40;1.20;;;6.50;99.90;;;;;;5014733;28;20475;-71
2021/12/08 01:16:17;;;;;;;1.63;1.10;;;6.40;99.90;;;;;;5014739;28;20427;-71
2021/12/08 01:18:44;;;;;;;3.07;1.50;;;6.40;99.90;;;;;;5014691;28;20506;-71
2021/12/08 01:21:11;;;;;;;1.97;1.37;;;6.50;99.90;;;;;;5014629;28;20459;-71
2021/12/08 01:23:39;;;;;;;1.90;1.10;;;6.40;99.90;;;;;;5014535;28;20467;-71
2021/12/08 01:26:07;;;;;;;1.67;1.57;;;6.50;99.90;;;;;;5014372;28;20478;-70
2021/12/08 01:28:34;;;;;;;2.83;1.03;;;6.50;99.90;;;;;;5014369;28;20483;-70
2021/12/08 01:31:04;;;;;;;2.47;1.37;;;6.50;99.90;;;;;;5014214;28;20937;-70
2021/12/08 01:33:33;;;;;;;1.60;1.37;;;6.50;99.90;;;;;;5014373;28;20478;-71
2021/12/08 01:36:01;;;;;;;2.10;1.43;;;6.50;99.90;;;;;;5014376;28;20497;-71
2021/12/08 01:38:28;;;;;;;1.60;1.23;;;6.60;99.90;;;;;;5014270;28;20812;-70
2021/12/08 01:40:55;;;;;;;3.10;1.10;;;6.60;99.90;;;;;;5014253;28;20447;-70
2021/12/08 01:43:27;;;;;;;1.20;1.10;;;6.60;99.90;;;;;;5013890;28;20467;-70
2021/12/08 01:46:01;;;;;;;3.40;1.20;;;6.70;99.90;;;;;;5014245;28;20435;-70
2021/12/08 01:48:30;;;;;;;2.70;1.03;;;6.70;99.90;;;;;;5014114;28;20463;-70
2021/12/08 01:51:00;;;;;;;0.77;0.70;;;6.70;99.90;;;;;;5014065;28;20451;-70
2021/12/08 01:53:28;;;;;;;1.40;1.00;;;6.70;99.90;;;;;;5013990;28;20475;-71
2021/12/08 01:55:54;;;;;;;1.30;1.00;;;6.80;99.90;;;;;;5014026;28;20458;-71
2021/12/08 01:58:22;;;;;;;1.27;1.17;;;6.80;99.90;;;;;;5014804;28;20809;-71
2021/12/08 02:00:52;;;;;;;1.53;1.17;;;6.90;99.90;;;;;;5013962;28;20455;-71
2021/12/08 02:03:21;;;;;;;4.13;1.10;;;6.90;99.90;;;;;;5013523;28;20482;-71
2021/12/08 02:05:48;;;;;;;0.63;0.63;;;6.90;99.90;;;;;;5014113;28;20470;-71
2021/12/08 02:08:15;;;;;;;0.70;0.67;;;6.90;99.90;;;;;;5013498;28;20833;-71
2021/12/08 02:10:43;;;;;;;1.07;0.67;;;6.90;99.90;;;;;;5013518;28;20444;-71
2021/12/08 02:13:10;;;;;;;1.13;1.03;;;6.90;99.90;;;;;;5013737;28;20569;-71
2021/12/08 02:15:38;;;;;;;1.23;0.77;;;6.90;99.90;;;;;;5013748;28;20450;-71
2021/12/08 02:18:07;;;;;;;1.53;0.90;;;6.90;99.90;;;;;;5013736;28;20880;-71
2021/12/08 02:20:36;;;;;;;1.10;0.97;;;6.90;99.90;;;;;;5013707;28;20613;-71
2021/12/08 02:23:05;;;;;;;1.10;0.73;;;6.90;99.90;;;;;;5013633;28;20470;-71
2021/12/08 02:25:32;;;;;;;1.30;1.00;;;7.00;99.90;;;;;;5014481;28;20447;-71
2021/12/08 02:28:01;;;;;;;2.00;0.80;;;7.00;99.90;;;;;;5013572;28;20432;-71
2021/12/08 02:30:34;;;;;;;1.03;0.93;;;7.10;99.90;;;;;;5013600;28;20451;-71
2021/12/08 02:46:52;;;;;;;0.50;0.50;;;7.10;99.90;;;;;;5017843;28;20411;-71
2021/12/08 02:49:21;;;;;;;0.80;0.80;;;7.10;99.90;;;;;;5017362;28;20554;-71
2021/12/08 02:51:49;;;;;;;1.07;0.80;;;7.10;99.90;;;;;;5017411;28;20443;-71
2021/12/08 02:54:18;;;;;;;1.33;0.80;;;7.10;99.90;;;;;;5016975;28;20883;-71
2021/12/08 02:56:45;;;;;;;0.97;0.70;;;7.20;99.90;;;;;;5017267;28;20462;-71
2021/12/08 02:59:12;;;;;;;0.90;0.90;;;7.20;99.90;;;;;;5016985;28;20439;-71
2021/12/08 03:01:40;;;;;;;4.43;0.50;;;7.20;99.90;;;;;;5016905;28;20938;-71
2021/12/08 03:04:08;;;;;;;2.10;1.00;;;7.20;99.90;;;;;;5016847;28;20483;-71
2021/12/08 03:06:36;;;;;;;0.60;0.50;;;7.20;99.90;;;;;;5016828;28;20941;-71
2021/12/08 03:09:04;;;;;;;5.03;0.70;;;7.20;99.90;;;;;;5016702;28;20993;-71
2021/12/08 03:11:32;;;;;;;2.70;0.80;;;7.20;99.90;;;;;;5017078;28;20454;-71
2021/12/08 03:14:05;;;;;;;3.03;0.80;;;7.20;99.90;;;;;;5016715;28;20462;-71
2021/12/08 03:16:32;;;;;;;2.60;0.87;;;7.20;99.90;;;;;;5016998;28;20423;-71
2021/12/08 03:18:59;;;;;;;4.90;0.93;;;7.30;99.90;;;;;;5016545;28;20806;-71
2021/12/08 03:21:30;;;;;;;5.53;1.10;;;7.30;99.90;;;;;;5016852;28;20443;-71
2021/12/08 03:24:10;;;;;;;3.60;1.33;;;7.30;99.90;;;;;;5016488;28;21083;-71
2021/12/08 03:26:46;;;;;;;5.10;1.43;;;7.40;99.90;;;;;;5016769;28;20442;-71
2021/12/08 03:32:05;;;;;;;2.50;1.50;;;7.50;99.90;;;;;;5016427;28;20858;-71
2021/12/08 03:34:35;;;;;;;5.73;1.60;;;7.50;99.90;;;;;;5016628;28;20459;-71
2021/12/08 03:37:03;;;;;;;3.00;1.47;;;7.60;99.90;;;;;;5016574;28;20443;-71
2021/12/08 03:39:29;;;;;;;2.60;1.30;;;7.60;99.90;;;;;;5016500;28;20435;-71
2021/12/08 03:41:58;;;;;;;5.13;1.97;;;7.70;99.90;;;;;;5016681;28;20448;-71
2021/12/08 03:44:24;;;;;;;2.80;1.60;;;7.70;99.90;;;;;;5016327;28;20458;-71
2021/12/08 03:46:54;;;;;;;4.87;1.60;;;7.70;99.90;;;;;;5016413;28;20522;-71
2021/12/08 03:49:21;;;;;;;4.90;2.10;;;7.70;99.90;;;;;;5014902;28;20502;-71
2021/12/08 03:51:48;;;;;;;7.03;2.20;;;7.70;99.90;;;;;;5016247;28;20443;-71
2021/12/08 03:54:15;;;;;;;5.57;2.53;;;7.80;99.90;;;;;;5016208;28;20490;-71
2021/12/08 03:56:43;;;;;;;4.87;1.30;;;7.80;99.90;;;;;;5016193;28;20473;-71
2021/12/08 03:59:11;;;;;;;4.77;1.40;;;7.80;99.90;;;;;;5016151;28;20517;-71
2021/12/08 04:01:38;;;;;;;2.60;1.20;;;7.80;99.90;;;;;;5016016;28;20454;-71
2021/12/08 04:04:08;;;;;;;4.77;1.40;;;7.80;99.80;;;;;;5015909;28;20483;-71
2021/12/08 04:06:41;;;;;;;5.60;1.60;;;7.80;99.70;;;;;;5016019;28;20493;-71
2021/12/08 04:09:17;;;;;;;9.50;1.47;;;7.80;99.70;;;;;;5015642;28;20562;-71
2021/12/08 04:11:45;;;;;;;3.27;1.20;;;7.80;99.70;;;;;;5015975;28;20550;-71
2021/12/08 04:14:17;;;;;;;5.90;1.43;;;7.70;99.60;;;;;;5015880;28;20506;-71
2021/12/08 04:16:48;;;;;;;4.00;1.50;;;7.70;99.70;;;;;;5015928;28;20431;-71
2021/12/08 04:19:16;;;;;;;4.07;1.60;;;7.70;99.80;;;;;;5015743;28;20432;-71
2021/12/08 04:21:46;;;;;;;3.33;1.10;;;7.70;99.70;;;;;;5015675;28;20450;-71
2021/12/08 04:24:13;;;;;;;5.43;1.60;;;7.70;99.70;;;;;;5015580;28;20474;-71
2021/12/08 04:26:44;;;;;;;1.57;1.10;;;7.70;99.70;;;;;;5015570;28;20474;-71
2021/12/08 04:29:14;;;;;;;4.93;1.70;;;7.60;99.70;;;;;;5015164;28;20837;-71
2021/12/08 04:31:43;;;;;;;2.80;1.10;;;7.70;99.70;;;;;;5015498;28;20477;-71
2021/12/08 04:34:18;;;;;;;5.20;1.50;;;7.70;99.70;;;;;;5015034;28;20467;-71
2021/12/08 04:36:50;;;;;;;2.60;1.40;;;7.60;99.80;;;;;;5015393;28;20439;-71
2021/12/08 04:39:23;;;;;;;3.23;1.43;;;7.60;99.80;;;;;;5015372;28;20432;-71
2021/12/08 04:41:57;;;;;;;7.30;1.30;;;7.60;99.80;;;;;;5014984;28;20892;-71
2021/12/08 04:44:32;;;;;;;4.23;1.30;;;7.60;99.90;;;;;;5014940;28;20945;-71
2021/12/08 04:50:20;;;;;;;6.03;1.50;;;7.60;99.90;;;;;;5014238;28;20493;-71
2021/12/08 04:52:56;;;;;;;3.00;1.23;;;7.50;99.90;;;;;;5015005;28;20481;-71
2021/12/08 05:01:24;;;;;;;8.17;2.67;;;7.50;99.90;;;;;;5014623;28;20412;-71
2021/12/08 05:04:12;;;;;;;7.17;1.90;;;7.50;99.90;;;;;;5014672;28;20486;-71
2021/12/08 05:06:48;;;;;;;4.47;1.73;;;7.50;99.90;;;;;;5014839;28;20432;-71
2021/12/08 05:09:19;;;;;;;5.90;1.80;;;7.50;99.90;;;;;;5014655;28;20467;-71
2021/12/08 05:11:50;;;;;;;2.97;1.47;;;7.50;99.90;;;;;;5014740;28;20434;-71
2021/12/08 05:14:22;;;;;;;5.90;1.87;;;7.50;99.90;;;;;;5014814;28;20525;-71
2021/12/08 05:16:54;;;;;;;13.93;1.83;;;7.50;99.90;;;;;;5015227;28;20428;-71
2021/12/08 05:19:23;;;;;;;6.10;1.70;;;7.50;99.90;;;;;;5014613;28;20423;-71
2021/12/08 05:21:54;;;;;;;5.53;1.97;;;7.50;99.90;;;;;;5014616;28;20470;-71
2021/12/08 05:24:23;;;;;;;6.13;1.93;;;7.50;99.90;;;;;;5014460;28;20474;-71
2021/12/08 05:26:55;;;;;;;15.37;3.20;;;7.50;99.90;;;;;;5014504;28;20447;-71
2021/12/08 05:29:25;;;;;;;6.90;2.37;;;7.50;99.90;;;;;;5014724;28;20467;-71
2021/12/08 05:31:57;;;;;;;6.83;2.77;;;7.50;99.90;;;;;;5014429;28;20850;-71
2021/12/08 05:34:25;;;;;;;4.53;2.73;;;7.50;99.80;;;;;;5014429;28;20908;-71
2021/12/08 05:36:54;;;;;;;10.80;2.90;;;7.50;99.80;;;;;;5014410;28;20470;-71
2021/12/08 05:39:25;;;;;;;12.17;3.13;;;7.50;99.70;;;;;;5014013;28;20942;-71
2021/12/08 05:41:55;;;;;;;7.73;2.20;;;7.50;99.80;;;;;;5014355;28;20432;-70
2021/12/08 05:44:23;;;;;;;7.70;2.63;;;7.50;99.60;;;;;;5014146;28;20490;-70
2021/12/08 05:46:54;;;;;;;8.70;2.00;;;7.50;99.50;;;;;;5014239;28;20431;-70
2021/12/08 05:49:22;;;;;;;7.07;2.87;;;7.50;99.40;;;;;;5014141;28;20475;-70
2021/12/08 05:51:52;;;;;;;11.80;2.50;;;7.50;99.00;;;;;;5014160;28;20438;-70
2021/12/08 05:54:22;;;;;;;3.97;1.77;;;7.50;98.80;;;;;;5014033;28;20463;-71
2021/12/08 05:56:54;;;;;;;10.10;2.57;;;7.50;98.70;;;;;;5014679;28;20455;-71
2021/12/08 05:59:21;;;;;;;9.10;2.07;;;7.50;98.70;;;;;;5013763;28;20786;-71
2021/12/08 06:01:55;;;;;;;5.60;1.90;;;7.50;98.70;;;;;;5014200;28;20455;-71
2021/12/08 06:04:24;;;;;;;5.00;1.73;;;7.50;98.70;;;;;;5014349;28;20467;-71
2021/12/08 06:06:52;;;;;;;7.47;1.90;;;7.50;98.70;;;;;;5013804;28;20443;-71
2021/12/08 06:09:22;;;;;;;6.80;2.00;;;7.50;98.60;;;;;;5013430;28;20988;-71
2021/12/08 06:11:50;;;;;;;6.80;2.07;;;7.50;98.60;;;;;;5012914;28;20436;-71
2021/12/08 06:14:17;;;;;;;7.60;3.37;;;7.40;98.70;;;;;;5013708;28;20514;-71
2021/12/08 06:16:45;;;;;;;11.20;3.07;;;7.40;98.70;;;;;;5013699;28;20494;-71
2021/12/08 06:19:16;;;;;;;6.27;2.50;;;7.50;98.60;;;;;;5013678;28;20451;-71
2021/12/08 06:21:44;;;;;;;8.57;3.10;;;7.50;98.60;;;;;;5013688;28;20795;-71
2021/12/08 06:24:13;;;;;;;5.27;2.07;;;7.50;98.60;;;;;;5013559;28;20467;-71
2021/12/08 06:26:40;;;;;;;5.80;1.40;;;7.50;98.50;;;;;;5013553;28;20447;-71
2021/12/08 06:29:11;;;;;;;5.20;1.67;;;7.50;98.50;;;;;;5013481;28;20459;-71
2021/12/08 06:31:39;;;;;;;7.13;1.70;;;7.60;98.40;;;;;;5013599;28;20448;-71
2021/12/08 06:34:07;;;;;;;5.23;1.93;;;7.60;98.10;;;;;;5013618;28;20468;-71
2021/12/08 06:36:39;;;;;;;7.90;1.70;;;7.50;97.60;;;;;;5013551;28;20447;-69
2021/12/08 06:39:10;;;;;;;4.47;1.77;;;7.50;97.00;;;;;;5013280;28;20431;-70
2021/12/08 06:41:41;;;;;;;6.27;1.63;;;7.60;97.00;;;;;;5013495;28;20443;-70
2021/12/08 06:44:10;;;;;;;3.90;1.97;;;7.50;96.90;;;;;;5013262;28;20470;-70
2021/12/08 06:46:39;;;;;;;9.07;2.07;;;7.50;97.00;;;;;;5013487;28;20462;-70
2021/12/08 06:49:11;;;;;;;7.20;2.03;;;7.50;97.10;;;;;;5013255;28;20459;-70
2021/12/08 06:51:42;;;;;;;4.53;1.87;;;7.50;96.70;;;;;;5013418;28;20432;-70
2021/12/08 06:54:15;;;;;;;7.67;1.83;;;7.50;96.30;;;;;;5013447;28;20467;-70
2021/12/08 06:56:48;;;;;;;12.03;2.60;;;7.50;96.10;;;;;;5014295;28;20451;-70
2021/12/08 06:59:21;;;;;;;6.73;2.40;;;7.50;95.80;;;;;;5013543;28;20778;-70
2021/12/08 07:01:58;;;;;;;5.93;1.90;;;7.50;95.80;;;;;;5013116;28;20835;-70
2021/12/08 07:04:33;;;;;;;3.30;1.70;;;7.50;95.70;;;;;;5013262;28;20455;-70
2021/12/08 07:07:13;;;;;;;6.97;2.40;;;7.50;95.50;;;;;;5013178;28;20498;-70
2021/12/08 07:09:43;;;;;;;4.73;2.13;;;7.40;95.20;;;;;;5012841;28;21144;-70
2021/12/08 07:12:14;;;;;;;13.60;2.03;;;7.40;95.50;;;;;;5013012;28;20470;-70
2021/12/08 07:14:44;;;;;;;3.50;1.30;;;7.40;95.60;;;;;;5012761;28;20474;-70
2021/12/08 07:17:14;;;;;;;6.50;2.20;;;7.40;95.40;;;;;;5012965;28;20454;-70
2021/12/08 07:19:46;;;;;;;5.00;2.03;;;7.40;95.40;;;;;;5013058;28;20438;-70
2021/12/08 07:22:19;;;;;;;4.00;1.50;;;7.40;95.20;;;;;;5013143;28;20435;-70
2021/12/08 07:24:48;;;;;;;5.60;2.00;;;7.40;95.40;;;;;;5017210;28;20482;-70
2021/12/08 07:27:20;;;;;;;8.07;2.10;;;7.40;95.20;;;;;;5016619;28;20428;-70
2021/12/08 07:29:48;;;;;;;10.13;1.97;;;7.40;95.20;;;;;;5017033;28;20475;-70
2021/12/08 07:32:18;;;;;;;5.70;2.17;;;7.40;95.30;;;;;;5016565;28;20953;-70
2021/12/08 07:34:46;;;;;;;6.97;1.80;;;7.40;95.30;;;;;;5016490;28;20467;-70
2021/12/08 07:37:17;;;;;;;4.50;1.80;;;7.40;95.40;;;;;;5016756;28;20454;-70
2021/12/08 07:39:47;;;;;;;3.97;1.90;;;7.30;95.40;;;;;;5018384;28;20858;-70
2021/12/08 07:42:18;;;;;;;4.63;1.77;;;7.30;95.20;;;;;;5016985;28;20446;-70
2021/12/08 07:44:47;;;;;;;6.00;2.20;;;7.30;95.30;;;;;;5016336;28;20477;-70
2021/12/08 07:47:16;;;;;;;4.53;1.80;;;7.30;95.20;;;;;;5016336;28;20448;-71
2021/12/08 07:49:46;;;;;;;9.63;2.13;;;7.30;95.30;;;;;;5016167;28;20490;-70
2021/12/08 07:52:16;;;;;;;5.13;1.63;;;7.30;95.40;;;;;;5019130;28;20444;-70
2021/12/08 07:54:45;;;;;;;10.10;2.47;;;7.30;95.30;;;;;;5016304;28;20470;-70
2021/12/08 07:57:15;;;;;;;6.93;1.43;;;7.30;95.10;;;;;;5015877;28;20428;-70
2021/12/08 08:00:00;;;;;;;11.87;2.40;;;7.30;95.20;;;;;;5024604;28;20427;-74
2021/12/08 08:02:29;;;;;;;7.43;1.90;;;7.30;95.30;;;;;;5027796;28;20485;-73
2021/12/08 08:04:59;;;;;;;7.93;2.07;;;7.30;95.30;;;;;;5023617;28;20455;-70
2021/12/08 08:07:27;;;;;;;7.00;2.03;;;7.30;95.20;;;;;;5017828;28;20464;-68
2021/12/08 08:10:00;;;;;;;8.10;2.67;;;7.30;95.20;;;;;;5015956;28;20494;-68
2021/12/08 08:12:29;;;;;;;8.77;1.80;;;7.30;95.10;;;;;;5015944;28;20446;-68
2021/12/08 08:14:58;;;;;;;18.40;2.30;;;7.30;95.10;;;;;;5015773;28;20455;-69
2021/12/08 08:17:33;;;;;;;7.60;2.20;;;7.40;95.10;;;;;;5015713;28;20546;-69
2021/12/08 08:20:01;;;;;;;15.73;3.97;;;7.40;95.10;;;;;;5019431;28;20424;-68
2021/12/08 08:22:37;;;;;;;8.27;2.73;;;7.40;95.20;;;;;;5017553;28;20546;-68
2021/12/08 08:25:08;;;;;;;10.40;2.03;;;7.50;95.30;;;;;;5016091;28;20853;-70
2021/12/08 08:27:35;;;;;;;7.73;2.10;;;7.50;94.90;;;;;;5015292;28;20909;-70
2021/12/08 08:30:06;;;;;;;4.30;1.67;;;7.50;94.80;;;;;;5015150;28;20479;-70
2021/12/08 08:32:36;;;;;;;8.13;2.30;;;7.50;94.60;;;;;;5015442;28;20797;-70
2021/12/08 08:35:09;;;;;;;9.73;2.00;;;7.50;94.50;;;;;;5014610;28;20451;-70
2021/12/08 08:37:39;;;;;;;8.33;1.87;;;7.50;94.60;;;;;;5019042;28;20432;-70
2021/12/08 08:40:18;;;;;;;8.43;2.70;;;7.50;94.60;;;;;;5020197;28;20450;-74
2021/12/08 08:42:49;;;;;;;7.00;2.43;;;7.60;94.70;;;;;;5015978;28;20477;-74
2021/12/08 08:45:22;;;;;;;4.83;2.20;;;7.50;94.40;;;;;;5017545;28;20436;-69
2021/12/08 08:47:52;;;;;;;5.07;1.93;;;7.60;94.50;;;;;;5015370;28;20459;-68
2021/12/08 08:50:24;;;;;;;4.73;1.77;;;7.60;94.30;;;;;;5015200;28;20470;-68
2021/12/08 08:52:55;;;;;;;5.83;2.13;;;7.60;94.30;;;;;;5015189;28;20869;-69
2021/12/08 08:55:25;;;;;;;9.50;2.63;;;7.60;94.40;;;;;;5014851;28;20894;-68
2021/12/08 08:57:53;;;;;;;7.97;2.70;;;7.60;94.40;;;;;;5015150;28;20439;-69
2021/12/08 09:00:30;;;;;;;6.67;1.70;;;7.60;94.30;;;;;;5015007;28;20439;-69
2021/12/08 09:02:58;;;;;;;7.27;2.30;;;7.60;94.40;;;;;;5014612;28;21098;-69
2021/12/08 09:05:30;;;;;;;11.37;1.97;;;7.60;94.30;;;;;;5014962;28;20447;-69
2021/12/08 09:08:00;;;;;;;6.00;1.50;;;7.70;93.80;;;;;;5014980;28;20531;-69
2021/12/08 09:10:33;;;;;;;7.07;2.23;;;7.70;93.70;;;;;;5014505;28;21020;-69
2021/12/08 09:13:04;;;;;;;12.00;2.57;;;7.70;93.60;;;;;;5014974;28;21008;-70
2021/12/08 09:15:35;;;;;;;9.43;2.10;;;7.80;93.60;;;;;;5014512;28;20432;-69
2021/12/08 09:18:06;;;;;;;5.77;2.20;;;7.90;93.30;;;;;;5014494;28;20836;-69
2021/12/08 09:20:37;;;;;;;8.90;1.83;;;7.90;93.40;;;;;;5014703;28;20442;-69
2021/12/08 09:23:09;;;;;;;8.80;2.00;;;8.00;93.00;;;;;;5014581;28;20479;-68
2021/12/08 09:25:48;;;;;;;4.90;1.80;;;8.00;92.50;;;;;;5014620;28;20439;-68
2021/12/08 09:28:18;;;;;;;10.37;3.00;;;8.00;92.50;;;;;;5014551;28;20443;-68
2021/12/08 09:30:49;;;;;;;9.90;2.20;;;8.00;92.60;;;;;;5014374;28;20479;-68
2021/12/08 09:33:20;;;;;;;12.87;2.90;;;8.00;92.20;;;;;;5014099;28;20969;-69
2021/12/08 09:35:51;;;;;;;11.47;1.93;;;8.10;92.40;;;;;;5014449;28;20436;-69
2021/12/08 09:38:24;;;;;;;6.57;3.20;;;8.00;92.40;;;;;;5014341;28;20443;-69
2021/12/08 09:40:57;;;;;;;5.40;2.30;;;8.10;92.50;;;;;;5014086;28;20432;-69
2021/12/08 09:43:29;;;;;;;8.07;1.60;;;8.10;92.30;;;;;;5014244;28;20467;-69
2021/12/08 09:45:59;;;;;;;5.90;1.90;;;8.20;92.10;;;;;;5014247;28;20439;-69
2021/12/08 09:48:29;;;;;;;7.47;1.90;;;8.30;92.00;;;;;;5014460;28;20443;-69
2021/12/08 09:50:58;;;;;;;4.80;1.70;;;8.30;91.60;;;;;;5014156;28;20490;-69
2021/12/08 09:53:28;;;;;;;12.73;2.60;;;8.40;91.60;;;;;;5014045;28;20537;-69
2021/12/08 09:55:55;;;;;;;4.00;2.10;;;8.30;91.10;;;;;;5014208;28;20438;-69
2021/12/08 09:58:22;;;;;;;7.13;1.50;;;8.40;91.10;;;;;;5013745;28;20454;-69
2021/12/08 10:00:55;;;;;;;4.33;1.53;;;8.40;90.40;;;;;;5014002;28;20451;-69
2021/12/08 10:03:22;;;;;;;4.80;1.50;;;8.40;90.40;;;;;;5013618;28;20487;-69
2021/12/08 10:05:49;;;;;;;3.93;1.53;;;8.40;89.90;;;;;;5013958;28;20474;-69
2021/12/08 10:08:16;;;;;;;7.20;1.63;;;8.40;90.10;;;;;;5014033;28;20497;-69
2021/12/08 10:10:45;;;;;;;7.70;1.70;;;8.40;90.20;;;;;;5013789;28;20490;-69
2021/12/08 10:13:13;;;;;;;4.40;1.33;;;8.50;90.40;;;;;;5013836;28;20463;-69
2021/12/08 10:15:40;;;;;;;5.60;1.70;;;8.50;90.10;;;;;;5013800;28;20450;-69
2021/12/08 10:18:08;;;;;;;5.03;2.30;;;8.60;90.10;;;;;;5013768;28;20455;-69
2021/12/08 10:20:42;;;;;;;5.80;2.33;;;8.60;90.00;;;;;;5013494;28;21035;-69
2021/12/08 10:23:15;;;;;;;6.70;1.63;;;8.60;90.00;;;;;;5013756;28;20475;-69
2021/12/08 10:25:46;;;;;;;4.07;2.17;;;8.60;90.10;;;;;;5013761;28;20486;-69
2021/12/08 10:28:17;;;;;;;5.00;1.97;;;8.60;90.00;;;;;;5013803;28;20452;-69
2021/12/08 10:30:47;;;;;;;5.30;2.20;;;8.70;89.70;;;;;;5013605;28;20467;-69
2021/12/08 10:33:47;;;;;;;4.20;1.83;;;8.80;89.90;;;;;;5013635;28;20506;-69
2021/12/08 10:39:10;;;;;;;6.23;1.50;;;8.80;88.40;;;;;;4997992;28;20573;-69
2021/12/08 10:42:01;;;;;;;5.10;1.73;;;8.90;87.50;;;;;;5013586;28;20420;-69
2021/12/08 10:44:36;;;;;;;10.50;1.83;;;8.90;87.60;;;;;;5013566;28;20799;-69
2021/12/08 10:47:04;;;;;;;6.77;1.70;;;9.00;87.30;;;;;;5013606;28;20438;-68
2021/12/08 10:55:03;;;;;;;2.57;1.40;;;9.10;87.10;;;;;;5013221;28;20446;-69
2021/12/08 10:57:33;;;;;;;5.53;2.23;;;9.10;86.70;;;;;;5013494;28;20443;-69
2021/12/08 11:00:04;;;;;;;10.10;1.40;;;9.10;86.90;;;;;;5017353;28;20856;-69
2021/12/08 11:02:50;;;;;;;8.20;2.10;;;9.10;86.00;;;;;;5017552;28;20471;-70
2021/12/08 11:05:41;;;;;;;6.93;2.03;;;9.00;85.90;;;;;;5017247;28;20423;-69
2021/12/08 11:08:13;;;;;;;3.77;1.40;;;9.10;85.30;;;;;;5017258;28;20439;-69
2021/12/08 11:10:43;;;;;;;7.03;1.80;;;9.00;84.90;;;;;;5017069;28;20439;-69
2021/12/08 11:13:12;;;;;;;4.10;1.23;;;9.00;85.20;;;;;;5017018;28;20467;-70
2021/12/08 11:15:39;;;;;;;7.33;1.60;;;9.00;85.40;;;;;;5016966;28;20450;-70
2021/12/08 11:18:12;;;;;;;7.80;1.90;;;9.00;85.70;;;;;;5017027;28;20455;-68
2021/12/08 11:20:49;;;;;;;8.57;1.90;;;8.90;85.10;;;;;;5016546;28;20868;-68
2021/12/08 11:23:28;;;;;;;8.57;1.60;;;8.90;85.30;;;;;;5016876;28;20471;-68
2021/12/08 11:25:56;;;;;;;3.17;1.40;;;9.00;85.50;;;;;;5016945;28;20431;-68
2021/12/08 11:28:29;;;;;;;4.53;1.50;;;9.00;86.00;;;;;;5016548;28;20930;-68
2021/12/08 11:31:05;;;;;;;4.80;1.63;;;9.00;85.80;;;;;;5016782;28;20463;-68
2021/12/08 11:33:31;;;;;;;9.77;2.23;;;9.00;85.00;;;;;;5016948;28;20558;-69
2021/12/08 11:36:11;;;;;;;6.50;2.00;;;9.00;85.50;;;;;;5016785;28;20447;-71
2021/12/08 11:38:40;;;;;;;5.70;1.80;;;9.10;85.20;;;;;;5016697;28;20463;-68
2021/12/08 11:41:11;;;;;;;4.90;1.60;;;9.10;84.20;;;;;;5016479;28;20444;-69
2021/12/08 11:43:39;;;;;;;6.23;1.40;;;9.20;84.20;;;;;;5016493;28;20501;-69
2021/12/08 11:46:17;;;;;;;2.40;1.70;;;9.30;84.40;;;;;;5016453;28;20486;-69
2021/12/08 11:49:03;;;;;;;7.43;1.90;;;9.40;83.10;;;;;;5016401;28;20446;-68
2021/12/08 11:51:32;;;;;;;10.57;1.63;;;9.60;82.80;;;;;;5016085;28;20999;-68
2021/12/08 11:54:01;;;;;;;3.07;1.60;;;9.70;82.40;;;;;;5017862;28;20463;-69
2021/12/08 11:56:39;;;;;;;5.40;2.17;;;9.80;81.60;;;;;;5016004;28;20447;-70
2021/12/08 11:59:10;;;;;;;5.40;2.37;;;9.90;81.60;;;;;;5016085;28;20423;-69
2021/12/08 12:01:38;;;;;;;4.80;1.43;;;10.10;79.50;;;;;;5016327;28;20424;-69
2021/12/08 12:04:06;;;;;;;5.33;2.10;;;10.20;79.20;;;;;;5023423;28;20479;-71
2021/12/08 12:06:34;;;;;;;4.40;1.43;;;10.40;78.50;;;;;;5019610;28;20794;-70
2021/12/08 12:09:02;;;;;;;8.33;1.57;;;10.70;77.60;;;;;;5015316;28;20447;-70
2021/12/08 12:11:31;;;;;;;5.37;2.20;;;10.90;75.30;;;;;;5018240;28;20483;-69
2021/12/08 12:14:05;;;;;;;5.03;1.30;;;11.10;75.20;;;;;;5017382;28;20521;-69
2021/12/08 12:16:33;;;;;;;9.43;1.43;;;11.40;72.80;;;;;;5024167;28;20921;-69
2021/12/08 12:19:05;;;;;;;3.60;1.30;;;11.50;69.90;;;;;;5018239;28;20458;-74
2021/12/08 12:21:42;;;;;;;3.23;1.30;;;11.70;69.70;;;;;;5021890;28;20841;-69
2021/12/08 12:24:28;;;;;;;6.87;1.83;;;12.00;68.40;;;;;;5019437;28;20502;-69
2021/12/08 12:27:09;;;;;;;8.07;2.20;;;12.10;65.60;;;;;;5016429;28;20513;-69
2021/12/08 12:29:49;;;;;;;3.50;1.47;;;12.20;64.50;;;;;;5015261;28;20940;-69
2021/12/08 12:32:23;;;;;;;4.00;1.17;;;12.20;63.40;;;;;;5015889;28;20463;-69
2021/12/08 12:34:53;;;;;;;6.83;1.80;;;12.10;63.80;;;;;;5024036;28;20841;-74
2021/12/08 12:37:33;;;;;;;5.53;1.70;;;11.90;64.00;;;;;;5015482;28;20455;-74
2021/12/08 12:40:01;;;;;;;4.03;1.37;;;11.90;64.20;;;;;;5015466;28;20439;-74
2021/12/08 12:42:41;;;;;;;4.97;1.37;;;11.80;63.60;;;;;;5015388;28;20444;-75
2021/12/08 12:45:12;;;;;;;4.43;1.13;;;11.60;64.50;;;;;;5015787;28;20438;-74
2021/12/08 12:47:41;;;;;;;5.30;1.40;;;11.40;65.30;;;;;;5015907;28;20446;-72
2021/12/08 12:50:15;;;;;;;4.07;1.40;;;11.20;66.30;;;;;;5015139;28;20447;-72
2021/12/08 12:52:44;;;;;;;5.30;1.80;;;11.10;66.90;;;;;;5015066;28;20460;-72
2021/12/08 12:55:14;;;;;;;5.70;1.97;;;11.20;67.30;;;;;;5014983;28;20447;-72
2021/12/08 12:58:17;;;;;;;3.23;1.20;;;11.30;65.80;;;;;;5017491;28;20428;-72
2021/12/08 13:01:00;;;;;;;3.77;2.00;;;11.30;66.00;;;;;;5014963;28;20533;-72
2021/12/08 13:03:37;;;;;;;6.00;1.77;;;11.40;65.80;;;;;;5014005;28;20498;-72
2021/12/08 13:06:05;;;;;;;4.53;1.40;;;11.40;65.80;;;;;;5014865;28;20434;-73
2021/12/08 13:08:34;;;;;;;4.00;1.70;;;11.30;66.10;;;;;;5014905;28;20466;-72
2021/12/08 13:11:05;;;;;;;7.53;1.37;;;11.20;66.00;;;;;;5015343;28;20949;-72
2021/12/08 13:13:46;;;;;;;6.03;1.40;;;11.10;66.30;;;;;;5014422;28;20463;-72
2021/12/08 13:16:23;;;;;;;4.67;1.40;;;10.80;67.30;;;;;;5017128;28;20443;-71
2021/12/08 13:19:00;;;;;;;7.23;1.97;;;10.70;68.40;;;;;;5015775;28;20423;-71
2021/12/08 13:21:39;;;;;;;4.93;1.20;;;10.60;69.80;;;;;;5014103;28;20447;-71
2021/12/08 13:24:26;;;;;;;8.07;2.03;;;10.40;70.90;;;;;;5014351;28;20467;-71
2021/12/08 13:27:01;;;;;;;7.73;3.73;;;10.40;71.80;;;;;;5014173;28;20478;-71
2021/12/08 13:29:31;;;;;;;6.73;2.00;;;10.50;72.70;;;;;;5015094;28;20447;-71
2021/12/08 13:32:09;;;;;;;4.70;2.00;;;10.50;71.80;;;;;;5014810;28;20468;-71
2021/12/08 13:34:37;;;;;;;6.30;1.70;;;10.40;72.20;;;;;;5014251;28;20483;-71
2021/12/08 13:37:24;;;;;;;10.80;2.17;;;10.40;71.30;;;;;;5014594;28;20850;-71
2021/12/08 13:39:54;;;;;;;6.60;1.37;;;10.50;71.90;;;;;;5014910;28;20439;-71
2021/12/08 13:42:28;;;;;;;7.33;1.40;;;10.40;71.70;;;;;;5014100;28;20533;-71
2021/12/08 13:44:58;;;;;;;3.33;1.73;;;10.40;71.50;;;;;;5014293;28;20466;-71
2021/12/08 13:47:34;;;;;;;4.40;1.60;;;10.30;71.20;;;;;;5018237;28;20443;-71
2021/12/08 13:50:08;;;;;;;3.80;1.50;;;10.30;71.90;;;;;;5018984;28;20906;-75
2021/12/08 13:52:41;;;;;;;7.40;1.43;;;10.20;72.60;;;;;;5021861;28;20470;-72